Time;durP1;ratioP1;P1;durP2;ratioP2;P2;SDS_P1;SDS_P2;PMS_P1;PMS_P2;Temp;Humidity;BMP_temperature;BMP_pressure;BME280_temperature;BME280_humidity;BME280_pressure;Samples;Min_cycle;Max_cycle;Signal;HPM_P1;HPM_P2
2022/03/02 00:00:15;;;;;;;6.85;4.85;;;;;;;5.65;73.77;102139.38;5016734;28;20033;-85
2022/03/02 00:02:42;;;;;;;9.32;5.93;;;;;;;5.67;73.40;102104.16;5017015;28;20029;-88
2022/03/02 00:05:08;;;;;;;8.18;5.22;;;;;;;5.43;73.94;102108.84;5017131;28;20029;-86
2022/03/02 00:07:33;;;;;;;8.15;5.30;;;;;;;5.67;74.01;102132.66;5034826;28;20025;-88
2022/03/02 00:09:59;;;;;;;7.53;5.20;;;;;;;4.90;74.11;102025.22;5016656;28;20034;-86
2022/03/02 00:12:27;;;;;;;8.60;5.68;;;;;;;5.38;74.13;102104.00;5016782;28;20479;-86
2022/03/02 00:14:52;;;;;;;6.80;5.05;;;;;;;5.55;74.08;102135.03;5034435;28;20065;-85
2022/03/02 00:17:18;;;;;;;7.07;4.70;;;;;;;5.70;73.31;102115.75;5016763;28;20460;-85
2022/03/02 00:19:44;;;;;;;7.45;5.13;;;;;;;5.52;73.70;102103.63;5016250;28;20029;-87
2022/03/02 00:22:10;;;;;;;7.05;5.00;;;;;;;5.63;73.50;102107.22;5016618;28;20496;-86
2022/03/02 00:24:36;;;;;;;;;;;;;;;5.50;74.19;102121.63;5033898;28;20064;-87
2022/03/02 00:27:03;;;;;;;7.03;4.72;;;;;;;5.39;74.37;102091.16;5015755;28;19948;-85
2022/03/02 00:29:28;;;;;;;7.05;4.63;;;;;;;5.66;74.15;102116.22;5016174;28;20037;-86
2022/03/02 00:31:54;;;;;;;7.18;5.10;;;;;;;5.30;74.24;102061.81;5034164;28;20083;-86
2022/03/02 00:34:19;;;;;;;7.35;4.75;;;;;;;5.66;73.94;102111.03;5016491;28;20113;-86
2022/03/02 00:36:45;;;;;;;7.45;4.95;;;;;;;5.22;74.09;102029.09;5016043;28;20026;-87
2022/03/02 00:39:11;;;;;;;7.20;4.50;;;;;;;5.00;74.29;102018.34;5034063;28;20201;-87
2022/03/02 00:41:36;;;;;;;7.35;5.15;;;;;;;5.38;74.90;102104.91;5016297;28;20072;-86
2022/03/02 00:44:03;;;;;;;8.00;4.68;;;;;;;5.27;74.93;102070.22;5033573;28;20038;-87
2022/03/02 00:46:29;;;;;;;6.75;4.55;;;;;;;5.55;74.45;102095.25;5015774;28;20465;-87
2022/03/02 00:48:56;;;;;;;6.90;5.13;;;;;;;5.59;73.78;102089.56;5016331;28;20108;-88
2022/03/02 00:51:23;;;;;;;6.97;5.00;;;;;;;5.63;73.82;102092.63;5015910;28;20046;-85
2022/03/02 00:53:49;;;;;;;7.28;5.20;;;;;;;5.25;74.29;102050.13;5033751;28;20030;-87
2022/03/02 00:56:14;;;;;;;6.90;4.95;;;;;;;5.36;74.33;102062.41;5033121;28;20029;-85
2022/03/02 00:58:40;;;;;;;7.68;5.25;;;;;;;5.10;74.69;102026.22;5030800;28;20036;-85
2022/03/02 01:01:07;;;;;;;6.32;4.80;;;;;;;5.83;73.18;102086.72;4999656;28;20781;-87
2022/03/02 01:03:32;;;;;;;6.55;4.80;;;;;;;5.66;73.79;102089.41;5015966;28;20088;-87
2022/03/02 01:06:01;;;;;;;6.85;4.75;;;;;;;5.67;73.41;102062.69;5015694;28;20498;-87
2022/03/02 01:08:26;;;;;;;7.38;4.93;;;;;;;5.64;73.81;102089.25;5014776;28;20040;-87
2022/03/02 01:10:53;;;;;;;6.97;4.85;;;;;;;5.50;73.59;102067.22;5033508;28;20108;-88
2022/03/02 01:13:19;;;;;;;7.32;4.88;;;;;;;5.16;74.52;102031.09;5015669;28;20146;-88
2022/03/02 01:15:44;;;;;;;8.15;5.18;;;;;;;5.35;74.27;102049.28;5015472;28;20507;-87
2022/03/02 01:18:10;;;;;;;7.25;5.03;;;;;;;5.29;74.35;102013.34;5028334;28;20064;-87
2022/03/02 01:20:36;;;;;;;7.93;5.28;;;;;;;5.33;74.26;102036.19;4995922;28;20056;-86
2022/03/02 01:23:02;;;;;;;7.07;5.03;;;;;;;5.40;73.76;102050.66;5013330;28;20084;-87
2022/03/02 01:25:28;;;;;;;7.15;5.18;;;;;;;5.48;73.91;102066.16;5013227;28;20034;-87
2022/03/02 01:27:53;;;;;;;5.72;4.20;;;;;;;5.22;74.60;102024.81;5028238;28;20030;-86
2022/03/02 01:30:20;;;;;;;7.75;5.28;;;;;;;5.58;74.22;102060.16;5032976;28;20116;-86
2022/03/02 01:32:46;;;;;;;6.18;4.57;;;;;;;5.49;74.47;102060.19;4999004;28;20047;-86
2022/03/02 01:35:12;;;;;;;6.80;4.78;;;;;;;5.35;73.99;102023.38;5014093;28;20026;-85
2022/03/02 01:37:38;;;;;;;7.72;4.88;;;;;;;5.58;73.81;102048.88;5001992;28;20099;-86
2022/03/02 01:40:05;;;;;;;6.63;4.78;;;;;;;5.53;73.88;102057.91;4995423;28;20419;-86
2022/03/02 01:42:31;;;;;;;5.95;4.45;;;;;;;5.55;74.10;102058.97;4995469;28;20041;-86
2022/03/02 01:44:56;;;;;;;7.22;5.13;;;;;;;5.14;74.47;102005.03;5016903;28;20029;-86
2022/03/02 01:47:27;;;;;;;6.13;4.20;;;;;;;5.56;74.13;102048.72;5032589;28;20060;-86
2022/03/02 01:49:52;;;;;;;8.00;4.50;;;;;;;5.43;74.21;102038.00;5014725;28;20284;-85
2022/03/02 01:52:18;;;;;;;6.68;4.63;;;;;;;5.41;74.50;102029.16;5032667;28;20044;-86
2022/03/02 01:54:45;;;;;;;6.82;4.70;;;;;;;5.50;73.90;102027.44;4998074;28;20045;-85
2022/03/02 01:57:10;;;;;;;8.02;5.03;;;;;;;5.50;74.20;102030.94;5014248;28;20136;-86
2022/03/02 01:59:36;;;;;;;5.68;4.10;;;;;;;5.53;74.05;102026.81;5032010;28;20495;-86
2022/03/02 02:02:02;;;;;;;6.53;4.68;;;;;;;5.45;74.52;102036.44;5032301;28;20499;-86
2022/03/02 02:04:28;;;;;;;6.85;4.65;;;;;;;5.54;74.30;102028.63;5014574;28;20037;-87
2022/03/02 02:06:55;;;;;;;6.68;4.60;;;;;;;5.59;73.37;102007.59;5014348;28;20033;-86
2022/03/02 02:09:20;;;;;;;6.25;4.60;;;;;;;5.05;74.12;101954.97;5014423;28;20033;-86
2022/03/02 02:11:46;;;;;;;6.80;4.60;;;;;;;5.45;73.58;102003.69;5014291;28;20083;-86
2022/03/02 02:14:12;;;;;;;7.95;5.10;;;;;;;5.49;73.43;102002.28;5014552;28;20029;-87
2022/03/02 02:16:38;;;;;;;6.03;4.43;;;;;;;4.61;74.65;101861.97;5013286;28;20034;-87
2022/03/02 02:19:03;;;;;;;6.57;4.65;;;;;;;5.00;74.10;101939.00;5032116;28;20454;-84
2022/03/02 02:21:29;;;;;;;7.53;4.30;;;;;;;5.41;74.28;102021.38;5032039;28;20117;-85
2022/03/02 02:23:55;;;;;;;5.93;4.28;;;;;;;5.43;74.53;102018.16;5014397;28;20498;-87
2022/03/02 02:26:21;;;;;;;6.53;4.45;;;;;;;5.35;74.20;101992.31;5013871;28;20033;-86
2022/03/02 02:28:48;;;;;;;6.85;4.30;;;;;;;5.50;73.97;102009.28;5031983;28;20095;-86
2022/03/02 02:31:13;;;;;;;6.30;4.43;;;;;;;5.34;74.31;101996.59;5031514;28;20037;-87
2022/03/02 02:33:39;;;;;;;6.88;4.30;;;;;;;5.35;74.20;101971.59;5014199;28;20036;-87
2022/03/02 02:36:05;;;;;;;6.60;4.60;;;;;;;5.27;74.75;101987.31;5031459;28;20487;-85
2022/03/02 02:38:31;;;;;;;6.88;4.28;;;;;;;4.93;74.64;101928.81;5014147;28;20030;-85
2022/03/02 02:40:57;;;;;;;6.07;4.20;;;;;;;5.17;74.87;101950.97;5022546;28;20037;-86
2022/03/02 02:43:24;;;;;;;7.20;4.22;;;;;;;5.48;74.27;101997.88;5010792;28;20064;-85
2022/03/02 02:45:50;;;;;;;6.10;4.30;;;;;;;5.23;74.26;101974.84;4986151;28;20095;-84
2022/03/02 02:48:16;;;;;;;6.15;4.22;;;;;;;5.43;74.42;101999.13;5031775;28;20022;-87
2022/03/02 02:50:42;;;;;;;5.85;4.07;;;;;;;5.33;74.58;101999.03;5027010;28;20117;-87
2022/03/02 02:53:09;;;;;;;5.95;4.05;;;;;;;5.28;75.04;101994.31;5034516;28;20018;-87
2022/03/02 02:55:36;;;;;;;7.00;4.63;;;;;;;5.33;74.82;101996.44;5050880;28;20029;-86
2022/03/02 02:58:03;;;;;;;;;;;;;;;5.32;74.72;101992.94;5014599;28;20037;-87
2022/03/02 03:00:30;;;;;;;5.70;4.28;;;;;;;5.06;74.44;101921.47;5013952;28;20351;-85
2022/03/02 03:02:57;;;;;;;5.70;3.97;;;;;;;5.21;74.51;101980.66;5014204;28;20025;-85
2022/03/02 03:05:25;;;;;;;6.45;4.35;;;;;;;4.95;74.29;101905.69;5013235;28;20617;-86
2022/03/02 03:07:51;;;;;;;6.30;4.13;;;;;;;4.88;74.69;101904.19;5013958;28;20060;-86
2022/03/02 03:10:18;;;;;;;5.95;4.35;;;;;;;5.33;74.58;101980.88;5031499;28;20079;-86
2022/03/02 03:12:45;;;;;;;5.38;3.80;;;;;;;5.25;74.68;101970.72;5031266;28;20133;-86
2022/03/02 03:15:12;;;;;;;5.45;4.07;;;;;;;5.35;74.70;101977.66;5013398;28;20113;-86
2022/03/02 03:17:38;;;;;;;7.05;4.65;;;;;;;5.15;75.06;101947.31;5012634;28;20087;-84
2022/03/02 03:20:06;;;;;;;4.80;3.65;;;;;;;5.26;74.82;101954.41;4997203;28;20025;-85
2022/03/02 03:22:32;;;;;;;5.75;4.10;;;;;;;4.98;74.37;101893.94;5033066;28;20057;-86
2022/03/02 03:24:59;;;;;;;6.05;4.30;;;;;;;5.06;74.84;101926.66;5049845;28;20056;-86
2022/03/02 03:27:24;;;;;;;5.65;4.05;;;;;;;5.19;74.83;101961.47;5053977;28;20031;-87
2022/03/02 03:29:50;;;;;;;6.47;4.32;;;;;;;5.15;74.94;101949.00;5054101;28;20033;-87
2022/03/02 03:32:16;;;;;;;5.22;3.90;;;;;;;5.18;74.61;101965.72;5037390;28;20637;-87
2022/03/02 03:34:42;;;;;;;5.47;4.18;;;;;;;5.37;74.80;101976.13;5020888;28;20127;-87
2022/03/02 03:37:09;;;;;;;6.13;4.00;;;;;;;5.27;75.01;101981.22;5037184;28;20025;-87
2022/03/02 03:39:34;;;;;;;5.97;3.90;;;;;;;4.99;74.85;101921.63;5037354;28;20040;-87
2022/03/02 03:42:01;;;;;;;5.60;4.03;;;;;;;5.44;74.31;101980.22;5037344;28;20029;-88
2022/03/02 03:44:27;;;;;;;5.25;4.07;;;;;;;5.09;73.86;101901.03;5020774;28;20066;-87
2022/03/02 03:46:53;;;;;;;6.15;4.22;;;;;;;5.53;74.14;101973.31;5054920;28;20025;-87
2022/03/02 03:49:19;;;;;;;6.43;4.43;;;;;;;5.07;73.95;101915.50;5054897;28;20033;-87
2022/03/02 03:51:44;;;;;;;6.20;4.10;;;;;;;4.97;74.06;101892.09;5054537;28;20417;-87
2022/03/02 03:54:10;;;;;;;5.65;3.95;;;;;;;4.96;74.39;101900.66;5027073;28;20112;-85
2022/03/02 03:56:36;;;;;;;5.65;4.10;;;;;;;5.22;74.15;101941.94;5000099;28;20479;-87
2022/03/02 03:59:04;;;;;;;6.28;4.40;;;;;;;5.05;74.22;101921.31;5000795;28;20396;-88
2022/03/02 04:01:31;;;;;;;8.05;3.97;;;;;;;5.45;74.04;101980.38;5030304;28;20172;-88
2022/03/02 04:03:57;;;;;;;6.82;4.10;;;;;;;5.25;74.37;101975.91;5013620;28;20450;-87
2022/03/02 04:06:22;;;;;;;5.78;4.07;;;;;;;5.27;73.86;101956.25;5014829;28;20036;-86
2022/03/02 04:08:48;;;;;;;5.35;3.97;;;;;;;5.29;73.84;101940.84;5036466;28;20033;-88
2022/03/02 04:11:14;;;;;;;5.80;4.00;;;;;;;5.30;74.38;101978.94;5051343;28;20094;-88
2022/03/02 04:13:40;;;;;;;5.78;4.05;;;;;;;4.84;74.53;101889.13;5015631;28;20029;-87
2022/03/02 04:16:06;;;;;;;6.05;4.30;;;;;;;5.19;74.06;101933.00;5024484;28;20033;-87
2022/03/02 04:18:32;;;;;;;5.50;4.05;;;;;;;5.18;74.56;101942.41;5036460;28;20490;-87
2022/03/02 04:20:58;;;;;;;5.85;4.20;;;;;;;5.24;74.34;101971.47;5035918;28;20033;-84
2022/03/02 04:23:25;;;;;;;5.68;4.00;;;;;;;5.29;74.91;101969.31;5016401;28;20033;-86
2022/03/02 04:25:50;;;;;;;6.22;4.20;;;;;;;5.11;74.46;101929.66;5034268;28;20037;-86
2022/03/02 04:28:16;;;;;;;6.55;4.00;;;;;;;5.00;74.54;101915.72;5016585;28;20040;-86
2022/03/02 04:30:42;;;;;;;5.25;3.95;;;;;;;4.99;74.75;101919.03;5016534;28;20037;-86
2022/03/02 04:33:07;;;;;;;6.10;4.18;;;;;;;4.97;74.61;101918.00;5016257;28;20082;-87
2022/03/02 04:35:34;;;;;;;5.43;3.73;;;;;;;5.12;74.35;101918.53;5016488;28;20111;-86
2022/03/02 04:38:00;;;;;;;7.20;4.38;;;;;;;5.30;73.98;101934.91;5016254;28;20288;-86
2022/03/02 04:40:26;;;;;;;6.03;4.10;;;;;;;5.36;74.30;101958.78;5033991;28;20025;-86
2022/03/02 04:42:54;;;;;;;5.57;4.03;;;;;;;5.06;73.83;101895.59;5016287;28;20040;-86
2022/03/02 04:45:25;;;;;;;6.22;4.07;;;;;;;4.99;74.13;101875.03;5016370;28;20040;-87
2022/03/02 04:47:51;;;;;;;6.18;4.05;;;;;;;5.24;74.30;101955.94;5000167;28;20025;-86
2022/03/02 04:50:19;;;;;;;5.53;4.05;;;;;;;5.26;74.74;101954.41;5012433;28;20058;-86
2022/03/02 04:52:46;;;;;;;5.28;3.65;;;;;;;5.24;73.53;101929.16;5012687;28;20484;-87
2022/03/02 04:55:12;;;;;;;6.32;3.85;;;;;;;5.25;74.41;101952.59;5012749;28;20412;-87
2022/03/02 04:57:54;;;;;;;6.03;4.03;;;;;;;5.22;74.86;101953.97;5012643;28;20064;-86
2022/03/02 05:00:25;;;;;;;5.55;3.85;;;;;;;5.19;74.85;101949.44;5012639;28;20032;-86
2022/03/02 05:02:52;;;;;;;5.07;3.88;;;;;;;5.36;73.75;101955.28;5012522;28;20026;-87
2022/03/02 05:05:19;;;;;;;;;;;;;;;5.35;74.05;101954.34;5013074;28;20037;-87
2022/03/02 05:07:45;;;;;;;6.55;3.95;;;;;;;5.22;74.77;101953.97;5029131;28;19913;-87
2022/03/02 05:10:13;;;;;;;5.72;3.75;;;;;;;5.63;73.28;101951.75;5012617;28;20438;-86
2022/03/02 05:12:42;;;;;;;6.18;3.83;;;;;;;5.40;73.82;101952.22;4995961;28;20038;-86
2022/03/02 05:15:09;;;;;;;6.10;4.15;;;;;;;5.36;73.78;101947.53;5012529;28;20470;-86
2022/03/02 05:17:36;;;;;;;6.03;4.10;;;;;;;4.96;74.52;101908.41;5012414;28;20022;-86
2022/03/02 05:20:03;;;;;;;5.47;3.78;;;;;;;5.21;74.28;101927.19;5012014;28;20132;-86
2022/03/02 05:22:29;;;;;;;6.07;3.75;;;;;;;5.27;73.95;101927.75;5013486;28;20478;-87
2022/03/02 05:24:54;;;;;;;4.40;3.45;;;;;;;5.17;74.12;101921.56;5013739;28;20030;-88
2022/03/02 05:27:20;;;;;;;5.57;3.65;;;;;;;5.01;74.49;101908.84;5013601;28;20076;-88
2022/03/02 05:29:45;;;;;;;5.60;4.07;;;;;;;5.03;74.37;101904.72;4996051;28;20483;-88
2022/03/02 05:32:11;;;;;;;5.43;3.55;;;;;;;5.37;74.42;101952.81;4995583;28;20113;-87
2022/03/02 05:34:38;;;;;;;5.70;4.03;;;;;;;5.33;74.28;101952.41;5012192;28;20465;-88
2022/03/02 05:37:04;;;;;;;4.88;3.50;;;;;;;5.21;73.68;101893.53;4995764;28;20455;-87
2022/03/02 05:39:29;;;;;;;6.03;4.05;;;;;;;5.37;73.35;101931.19;5006391;28;20034;-87
2022/03/02 05:41:56;;;;;;;5.50;3.90;;;;;;;5.41;73.47;101954.94;5022821;28;20038;-87
2022/03/02 05:44:22;;;;;;;6.10;3.92;;;;;;;5.34;73.51;101921.47;5010373;28;20022;-83
2022/03/02 05:46:48;;;;;;;4.97;3.90;;;;;;;5.43;73.61;101949.91;5006692;28;20100;-85
2022/03/02 05:49:14;;;;;;;5.18;3.85;;;;;;;4.96;74.15;101913.59;4999058;28;20058;-84
2022/03/02 05:51:40;;;;;;;;;;;;;;;5.28;74.42;101973.59;5014608;28;20113;-84
2022/03/02 05:54:08;;;;;;;4.35;3.80;;;;;;;5.25;73.45;101933.56;5012766;28;20439;-84
2022/03/02 05:56:34;;;;;;;4.45;3.33;;;;;;;5.16;73.83;101923.22;5011396;28;20109;-84
2022/03/02 05:59:00;;;;;;;5.20;3.63;;;;;;;5.20;73.52;101927.03;5027791;28;20508;-85
2022/03/02 06:01:26;;;;;;;5.20;4.03;;;;;;;5.22;73.86;101957.47;5027758;28;20036;-83
2022/03/02 06:03:52;;;;;;;4.57;3.38;;;;;;;5.14;73.88;101929.94;5027634;28;20424;-84
2022/03/02 06:06:17;;;;;;;5.00;3.83;;;;;;;5.35;73.81;101959.53;5011340;28;20052;-84
2022/03/02 06:08:44;;;;;;;5.50;3.63;;;;;;;5.25;73.51;101934.47;5012303;28;20793;-85
2022/03/02 06:11:09;;;;;;;5.38;3.53;;;;;;;5.23;74.12;101953.22;5011125;28;20033;-85
2022/03/02 06:13:35;;;;;;;5.40;3.67;;;;;;;5.07;74.45;101936.22;5013077;28;20488;-85
2022/03/02 06:16:02;;;;;;;4.90;3.53;;;;;;;5.04;74.04;101919.50;5013752;28;20025;-84
2022/03/02 06:18:29;;;;;;;5.80;4.00;;;;;;;5.08;73.87;101890.56;5013177;28;20030;-85
2022/03/02 06:21:00;;;;;;;4.82;3.50;;;;;;;5.23;73.20;101904.03;5011017;28;20109;-84
2022/03/02 06:23:29;;;;;;;4.38;3.30;;;;;;;4.89;74.16;101893.09;5010952;28;20070;-86
2022/03/02 06:25:54;;;;;;;6.00;3.65;;;;;;;4.87;73.01;101851.53;5012102;28;20104;-86
2022/03/02 06:28:21;;;;;;;6.13;3.63;;;;;;;5.68;72.27;101959.19;5029682;28;20029;-85
2022/03/02 06:30:47;;;;;;;4.88;3.50;;;;;;;5.10;73.74;101912.28;5031988;28;20034;-85
2022/03/02 06:33:14;;;;;;;5.95;3.67;;;;;;;4.98;73.17;101877.50;5022223;28;20029;-87
2022/03/02 06:35:40;;;;;;;5.40;3.60;;;;;;;4.89;73.25;101851.69;5027369;28;20037;-88
2022/03/02 06:38:06;;;;;;;5.50;3.78;;;;;;;5.35;73.60;101951.75;4987067;28;20568;-86
2022/03/02 06:40:33;;;;;;;5.10;3.60;;;;;;;4.99;73.28;101882.81;5024773;28;20030;-88
2022/03/02 06:43:01;;;;;;;4.97;3.75;;;;;;;5.32;74.16;101967.03;4994341;28;20064;-85
2022/03/02 06:45:52;;;;;;;4.70;3.60;;;;;;;5.46;73.54;101968.31;5020881;28;20667;-87
2022/03/02 06:48:25;;;;;;;5.57;3.70;;;;;;;5.21;73.69;101926.28;5002408;28;20109;-88
2022/03/02 06:50:53;;;;;;;6.05;3.55;;;;;;;5.12;73.95;101934.06;5010690;28;20041;-88
2022/03/02 06:53:35;;;;;;;4.35;3.38;;;;;;;5.14;74.31;101929.94;5010611;28;20107;-86
2022/03/02 06:56:05;;;;;;;4.63;3.47;;;;;;;5.17;73.85;101940.59;5010691;28;20091;-88
2022/03/02 06:58:42;;;;;;;5.72;3.70;;;;;;;5.17;74.22;101939.69;5026812;28;20461;-86
2022/03/02 07:01:12;;;;;;;5.57;3.63;;;;;;;5.26;74.32;101972.53;5019689;28;20065;-88
2022/03/02 07:03:45;;;;;;;5.57;3.60;;;;;;;5.37;74.19;101962.28;5021487;28;20111;-87
2022/03/02 07:06:13;;;;;;;5.22;3.38;;;;;;;5.15;73.93;101929.19;5010015;28;20040;-89
2022/03/02 07:08:41;;;;;;;5.13;3.50;;;;;;;5.00;74.93;101922.56;5010063;28;20033;-88
2022/03/02 07:11:06;;;;;;;4.30;3.30;;;;;;;5.29;74.11;101938.25;4993847;28;20087;-87
2022/03/02 07:13:33;;;;;;;4.60;3.30;;;;;;;4.66;74.41;101846.91;5010698;28;20030;-88
2022/03/02 07:15:59;;;;;;;5.00;3.50;;;;;;;5.22;74.59;101959.16;5008642;28;20030;-85
2022/03/02 07:18:25;;;;;;;4.47;3.17;;;;;;;4.60;74.27;101841.16;5010588;28;20096;-87
2022/03/02 07:20:51;;;;;;;4.03;3.28;;;;;;;4.89;74.58;101906.94;5004969;28;20034;-86
2022/03/02 07:23:18;;;;;;;4.88;3.42;;;;;;;5.33;74.30;101960.16;5009795;28;20036;-86
2022/03/02 07:25:44;;;;;;;5.13;3.50;;;;;;;5.07;74.87;101935.31;5009613;28;20030;-86
2022/03/02 07:28:12;;;;;;;5.47;4.07;;;;;;;4.62;74.44;101856.06;5026698;28;20033;-86
2022/03/02 07:30:39;;;;;;;4.50;3.47;;;;;;;5.18;74.94;101951.88;5026789;28;20458;-86
2022/03/02 07:33:05;;;;;;;4.70;3.45;;;;;;;4.93;74.27;101890.00;4994141;28;20076;-86
2022/03/02 07:35:34;;;;;;;5.00;3.50;;;;;;;5.35;74.10;101935.31;5009956;28;20457;-86
2022/03/02 07:38:01;;;;;;;5.28;3.78;;;;;;;5.04;73.98;101888.44;5010372;28;20038;-89
2022/03/02 07:40:28;;;;;;;7.47;3.95;;;;;;;5.16;74.56;101928.41;5011578;28;20022;-91
2022/03/02 07:43:09;;;;;;;4.18;3.22;;;;;;;4.76;74.86;101866.78;4994462;28;20030;-88
2022/03/02 07:45:34;;;;;;;5.18;3.47;;;;;;;4.97;74.81;101893.78;5027159;28;20025;-86
2022/03/02 07:48:01;;;;;;;5.45;3.70;;;;;;;4.86;74.22;101857.44;5011514;28;20518;-86
2022/03/02 07:50:27;;;;;;;4.28;3.28;;;;;;;5.07;74.79;101893.91;5026311;28;20085;-87
2022/03/02 07:52:54;;;;;;;4.68;3.30;;;;;;;4.88;75.01;101884.38;5011200;28;20069;-87
2022/03/02 07:55:21;;;;;;;5.45;3.88;;;;;;;4.85;74.54;101850.47;5026640;28;20044;-86
2022/03/02 07:57:53;;;;;;;4.97;3.67;;;;;;;5.26;74.38;101937.97;5026066;28;20451;-88
2022/03/02 08:00:18;;;;;;;5.30;3.58;;;;;;;4.61;75.08;101835.19;5010273;28;20084;-88
2022/03/02 08:02:47;;;;;;;5.45;3.67;;;;;;;5.20;74.81;101933.09;5027024;28;20503;-88
2022/03/02 08:05:13;;;;;;;5.10;3.53;;;;;;;4.86;74.82;101880.75;5006975;28;20081;-89
2022/03/02 08:07:39;;;;;;;4.57;3.53;;;;;;;4.97;74.74;101899.88;5001181;28;20038;-90
2022/03/02 08:10:24;;;;;;;5.38;3.33;;;;;;;5.06;75.06;101912.81;4995074;28;20069;-91
2022/03/02 08:12:50;;;;;;;4.70;3.47;;;;;;;4.89;74.71;101875.88;5011071;28;20034;-89
2022/03/02 08:15:39;;;;;;;6.10;3.17;;;;;;;5.16;75.19;101923.22;5012254;28;20481;-91
2022/03/02 08:18:12;;;;;;;4.15;2.90;;;;;;;5.06;74.90;101898.16;5027994;28;20032;-90
2022/03/02 08:20:48;;;;;;;4.88;3.55;;;;;;;4.95;75.22;101884.97;5015236;28;20092;-91
2022/03/02 08:23:19;;;;;;;5.43;3.53;;;;;;;5.12;74.71;101904.69;5014677;28;20030;-92
2022/03/02 08:25:55;;;;;;;5.07;3.40;;;;;;;5.13;75.09;101903.94;5015909;28;20117;-91
2022/03/02 08:28:22;;;;;;;4.95;3.50;;;;;;;4.95;74.72;101870.34;5013767;28;20058;-86
2022/03/02 08:30:53;;;;;;;4.50;3.42;;;;;;;4.93;74.98;101870.97;5013438;28;20114;-87
2022/03/02 08:33:32;;;;;;;4.10;3.15;;;;;;;4.97;75.15;101860.13;4998233;28;20415;-90
2022/03/02 08:35:59;;;;;;;5.22;3.55;;;;;;;4.73;74.72;101819.94;4997445;28;20021;-91
2022/03/02 08:38:29;;;;;;;4.70;3.42;;;;;;;5.16;75.28;101878.31;5030696;28;20496;-88
2022/03/02 08:41:11;;;;;;;4.32;3.28;;;;;;;4.98;74.96;101869.75;5029448;28;20565;-88
2022/03/02 08:43:51;;;;;;;5.18;3.40;;;;;;;5.17;74.84;101881.06;5028394;28;20065;-91
2022/03/02 08:46:18;;;;;;;4.85;3.55;;;;;;;4.94;75.14;101839.16;5025329;28;20113;-93
2022/03/02 08:48:44;;;;;;;4.38;3.22;;;;;;;5.08;74.80;101857.81;5027225;28;20022;-91
2022/03/02 08:51:10;;;;;;;5.00;3.70;;;;;;;4.99;75.49;101853.44;5030012;28;20046;-89
2022/03/02 08:53:41;;;;;;;3.85;3.22;;;;;;;4.92;75.30;101835.53;5030629;28;20523;-89
2022/03/02 08:56:23;;;;;;;4.45;3.05;;;;;;;5.25;74.96;101864.56;5013810;28;20491;-90
2022/03/02 08:58:52;;;;;;;6.85;4.00;;;;;;;5.07;75.10;101849.88;5030283;28;20026;-88
2022/03/02 09:01:21;;;;;;;6.22;3.78;;;;;;;4.98;75.00;101817.97;5013353;28;20030;-90
2022/03/02 09:03:53;;;;;;;5.65;3.85;;;;;;;5.03;75.17;101832.25;5029998;28;20084;-89
2022/03/02 09:06:20;;;;;;;5.03;3.60;;;;;;;5.07;75.45;101840.44;4999123;28;20035;-87
2022/03/02 09:08:46;;;;;;;6.28;3.90;;;;;;;5.03;75.12;101832.25;5010245;28;20066;-88
2022/03/02 09:11:24;;;;;;;5.43;3.78;;;;;;;4.94;74.80;101802.94;5010078;28;20416;-88
2022/03/02 09:13:50;;;;;;;5.70;3.83;;;;;;;5.15;75.30;101840.25;5009467;28;20571;-87
2022/03/02 09:16:17;;;;;;;5.53;4.00;;;;;;;4.86;75.76;101800.50;5000842;28;20495;-87
2022/03/02 09:18:44;;;;;;;4.13;3.45;;;;;;;5.18;75.33;101825.88;5027784;28;20108;-84
2022/03/02 09:21:09;;;;;;;;;;;;;;;5.21;74.94;101818.41;5024849;28;20444;-88
2022/03/02 09:23:43;;;;;;;5.82;3.80;;;;;;;5.18;75.01;101819.81;5012699;28;19920;-87
2022/03/02 09:26:11;;;;;;;5.05;3.83;;;;;;;4.48;75.44;101694.38;5024172;28;20025;-87
2022/03/02 09:28:39;;;;;;;7.35;4.00;;;;;;;4.97;75.55;101775.63;5011128;28;20466;-86
2022/03/02 09:31:07;;;;;;;6.35;4.28;;;;;;;4.95;75.05;101758.13;5027131;28;20033;-87
2022/03/02 09:33:34;;;;;;;6.10;3.83;;;;;;;5.26;74.68;101796.44;5027580;28;20479;-86
2022/03/02 09:36:09;;;;;;;5.75;3.70;;;;;;;5.17;75.46;101790.41;5007439;28;20491;-87
2022/03/02 09:38:37;;;;;;;5.80;4.13;;;;;;;5.18;75.08;101788.72;4996224;28;20033;-86
2022/03/02 09:41:09;;;;;;;5.43;3.60;;;;;;;4.63;75.72;101697.47;4995374;28;20488;-86
2022/03/02 09:43:36;;;;;;;6.20;4.22;;;;;;;5.12;75.07;101773.53;5013101;28;20499;-87
2022/03/02 09:46:07;;;;;;;5.75;3.85;;;;;;;4.60;75.15;101670.41;5011322;28;20026;-86
2022/03/02 09:48:35;;;;;;;6.50;4.00;;;;;;;5.20;74.82;101767.38;5028086;28;20459;-86
2022/03/02 09:51:05;;;;;;;5.57;3.92;;;;;;;5.18;75.60;101768.03;5011588;28;20125;-86
2022/03/02 09:53:33;;;;;;;8.52;3.95;;;;;;;5.39;74.44;101751.84;5012551;28;20479;-86
2022/03/02 09:56:04;;;;;;;8.40;3.67;;;;;;;5.25;75.02;101729.00;5011466;28;20563;-86
2022/03/02 09:58:31;;;;;;;6.85;4.03;;;;;;;5.36;74.72;101729.97;5026563;28;20073;-87
2022/03/02 10:00:59;;;;;;;6.40;4.20;;;;;;;5.07;74.26;101645.38;5026797;28;20128;-88
2022/03/02 10:03:35;;;;;;;5.38;3.78;;;;;;;5.55;74.20;101729.94;5027849;28;20034;-88
2022/03/02 10:06:04;;;;;;;6.50;4.00;;;;;;;5.46;74.77;101724.81;5011402;28;20034;-85
2022/03/02 10:08:34;;;;;;;7.30;3.80;;;;;;;5.47;73.81;101698.13;5011604;28;20053;-88
2022/03/02 10:11:03;;;;;;;6.55;3.92;;;;;;;5.18;74.43;101673.13;5027732;28;20034;-86
2022/03/02 10:13:29;;;;;;;5.90;3.90;;;;;;;5.52;74.13;101704.63;5028078;28;20026;-89
2022/03/02 10:15:57;;;;;;;5.50;3.70;;;;;;;5.58;74.22;101705.19;5011116;28;20539;-87
2022/03/02 10:18:25;;;;;;;7.65;4.00;;;;;;;5.57;73.81;101705.97;5027615;28;20061;-87
2022/03/02 10:20:53;;;;;;;5.82;4.05;;;;;;;5.75;73.72;101713.53;5012619;28;20489;-86
2022/03/02 10:23:41;;;;;;;7.07;4.45;;;;;;;5.49;74.63;101700.09;5011231;28;20034;-85
2022/03/02 10:26:10;;;;;;;;;;;;;;;5.48;74.54;101707.72;5027761;28;20026;-85
2022/03/02 10:28:35;;;;;;;7.03;4.18;;;;;;;5.40;74.68;101695.78;5012283;28;19913;-86
2022/03/02 10:31:17;;;;;;;6.80;4.23;;;;;;;5.38;74.68;101703.41;5027202;28;20026;-85
2022/03/02 10:33:52;;;;;;;6.40;4.22;;;;;;;4.94;75.09;101625.25;5027403;28;20033;-86
2022/03/02 10:36:17;;;;;;;6.97;4.38;;;;;;;5.21;75.04;101659.56;5027156;28;20030;-85
2022/03/02 10:38:59;;;;;;;6.80;4.53;;;;;;;5.33;75.10;101680.44;5012241;28;20582;-88
2022/03/02 10:41:27;;;;;;;6.47;4.47;;;;;;;5.42;74.91;101674.44;5012120;28;20459;-87
2022/03/02 10:44:00;;;;;;;6.30;4.40;;;;;;;5.13;74.65;101617.44;5010965;28;20034;-86
2022/03/02 10:46:27;;;;;;;6.88;4.28;;;;;;;5.21;74.93;101637.16;5011972;28;20088;-86
2022/03/02 10:49:04;;;;;;;6.53;4.45;;;;;;;5.45;74.75;101666.91;5010830;28;20026;-85
2022/03/02 10:51:33;;;;;;;7.38;4.60;;;;;;;5.22;75.50;101641.56;5007344;28;20218;-87
2022/03/02 10:54:02;;;;;;;5.68;4.10;;;;;;;5.23;75.59;101652.84;4991133;28;20030;-87
2022/03/02 10:56:29;;;;;;;7.60;4.78;;;;;;;5.16;74.79;101599.56;4992298;28;20046;-87
2022/03/02 10:58:55;;;;;;;;;;;;;;;5.43;74.38;101645.16;5007894;28;20030;-85
2022/03/02 11:01:21;;;;;;;7.10;4.47;;;;;;;5.58;74.12;101647.28;4992472;28;20502;-85
2022/03/02 11:03:47;;;;;;;7.72;4.85;;;;;;;5.23;74.66;101614.00;4990986;28;20027;-86
2022/03/02 11:06:13;;;;;;;6.50;4.50;;;;;;;5.43;74.42;101639.06;5007583;28;20030;-86
2022/03/02 11:08:43;;;;;;;6.45;4.63;;;;;;;5.00;75.19;101581.78;4992144;28;20583;-86
2022/03/02 11:11:09;;;;;;;6.90;4.65;;;;;;;4.95;75.56;101589.91;5007327;28;20031;-85
2022/03/02 11:13:36;;;;;;;6.65;4.88;;;;;;;5.24;75.09;101614.13;4992298;28;20026;-85
2022/03/02 11:16:04;;;;;;;6.93;4.63;;;;;;;5.27;75.65;101624.75;4974623;28;20035;-85
2022/03/02 11:18:38;;;;;;;7.85;4.63;;;;;;;5.20;75.47;101612.03;4991039;28;20034;-85
2022/03/02 11:21:12;;;;;;;6.82;4.40;;;;;;;5.12;75.21;101586.22;5007314;28;20407;-85
2022/03/02 11:23:46;;;;;;;7.03;4.47;;;;;;;5.21;75.71;101603.50;5007362;28;20034;-85
2022/03/02 11:26:17;;;;;;;7.95;5.07;;;;;;;5.32;75.27;101604.44;4991027;28;20022;-83
2022/03/02 11:28:49;;;;;;;6.82;4.75;;;;;;;5.09;75.63;101585.19;4992149;28;20081;-86
2022/03/02 11:31:30;;;;;;;7.18;4.55;;;;;;;5.17;75.49;101591.06;5007323;28;20019;-85
2022/03/02 11:34:11;;;;;;;8.13;5.22;;;;;;;5.33;75.13;101606.25;5007065;28;20055;-86
2022/03/02 11:36:37;;;;;;;7.32;4.97;;;;;;;5.37;74.81;101608.34;4990656;28;20041;-87